sensor_id;sensor_type;location;lat;lon;timestamp;temperature;humidity
41592;DHT22;28026;48.562;14.440;2023-03-31T00:00:54;6.80;99.90
41592;DHT22;28026;48.562;14.440;2023-03-31T00:03:27;6.90;99.90
41592;DHT22;28026;48.562;14.440;2023-03-31T00:05:59;6.90;99.90
41592;DHT22;28026;48.562;14.440;2023-03-31T00:08:31;6.90;99.90
41592;DHT22;28026;48.562;14.440;2023-03-31T00:11:06;6.90;99.90
41592;DHT22;28026;48.562;14.440;2023-03-31T00:13:38;6.90;99.90
41592;DHT22;28026;48.562;14.440;2023-03-31T00:16:09;6.90;99.90
41592;DHT22;28026;48.562;14.440;2023-03-31T00:18:40;6.90;99.90
41592;DHT22;28026;48.562;14.440;2023-03-31T00:21:19;6.80;99.90
41592;DHT22;28026;48.562;14.440;2023-03-31T00:24:01;6.80;99.90
41592;DHT22;28026;48.562;14.440;2023-03-31T00:26:36;6.80;99.90
41592;DHT22;28026;48.562;14.440;2023-03-31T00:29:10;6.60;99.90
41592;DHT22;28026;48.562;14.440;2023-03-31T00:31:42;6.50;99.90
41592;DHT22;28026;48.562;14.440;2023-03-31T00:34:13;6.30;99.90
41592;DHT22;28026;48.562;14.440;2023-03-31T00:36:44;6.30;99.90
41592;DHT22;28026;48.562;14.440;2023-03-31T00:39:17;6.10;99.90
41592;DHT22;28026;48.562;14.440;2023-03-31T00:41:49;5.90;99.90
41592;DHT22;28026;48.562;14.440;2023-03-31T00:44:21;5.90;99.90
41592;DHT22;28026;48.562;14.440;2023-03-31T00:47:13;5.80;99.90
41592;DHT22;28026;48.562;14.440;2023-03-31T00:49:55;5.90;99.90
41592;DHT22;28026;48.562;14.440;2023-03-31T00:52:32;6.10;99.90
41592;DHT22;28026;48.562;14.440;2023-03-31T00:55:15;6.10;99.90
41592;DHT22;28026;48.562;14.440;2023-03-31T00:57:54;6.10;99.90
41592;DHT22;28026;48.562;14.440;2023-03-31T01:00:27;6.10;99.90
41592;DHT22;28026;48.562;14.440;2023-03-31T01:03:02;6.00;99.90
41592;DHT22;28026;48.562;14.440;2023-03-31T01:08:30;6.00;99.90
41592;DHT22;28026;48.562;14.440;2023-03-31T01:11:08;6.00;99.90
41592;DHT22;28026;48.562;14.440;2023-03-31T01:13:43;6.10;99.90
41592;DHT22;28026;48.562;14.440;2023-03-31T01:16:19;6.10;99.90
41592;DHT22;28026;48.562;14.440;2023-03-31T01:18:50;6.10;99.90
41592;DHT22;28026;48.562;14.440;2023-03-31T01:22:04;6.00;99.90
41592;DHT22;28026;48.562;14.440;2023-03-31T01:43:28;5.80;99.90
41592;DHT22;28026;48.562;14.440;2023-03-31T01:46:36;5.90;99.90
41592;DHT22;28026;48.562;14.440;2023-03-31T01:52:57;5.90;99.90
41592;DHT22;28026;48.562;14.440;2023-03-31T01:59:26;5.90;99.90
41592;DHT22;28026;48.562;14.440;2023-03-31T02:02:16;5.80;99.90
41592;DHT22;28026;48.562;14.440;2023-03-31T02:05:05;5.80;99.90
41592;DHT22;28026;48.562;14.440;2023-03-31T02:07:56;5.70;99.90
41592;DHT22;28026;48.562;14.440;2023-03-31T02:10:44;5.80;99.90
41592;DHT22;28026;48.562;14.440;2023-03-31T02:13:18;5.70;99.90
41592;DHT22;28026;48.562;14.440;2023-03-31T02:15:54;5.70;99.90
41592;DHT22;28026;48.562;14.440;2023-03-31T02:18:34;5.60;99.90
41592;DHT22;28026;48.562;14.440;2023-03-31T02:21:09;5.60;99.90
41592;DHT22;28026;48.562;14.440;2023-03-31T02:23:44;5.60;99.90
41592;DHT22;28026;48.562;14.440;2023-03-31T02:26:24;5.60;99.90
41592;DHT22;28026;48.562;14.440;2023-03-31T02:29:01;5.60;99.90
41592;DHT22;28026;48.562;14.440;2023-03-31T02:31:41;5.60;99.90
41592;DHT22;28026;48.562;14.440;2023-03-31T02:34:22;5.60;99.90
41592;DHT22;28026;48.562;14.440;2023-03-31T02:36:54;5.70;99.90
41592;DHT22;28026;48.562;14.440;2023-03-31T02:39:28;5.70;99.90
41592;DHT22;28026;48.562;14.440;2023-03-31T02:42:04;5.70;99.90
41592;DHT22;28026;48.562;14.440;2023-03-31T02:44:39;5.70;99.90
41592;DHT22;28026;48.562;14.440;2023-03-31T02:47:14;5.60;99.90
41592;DHT22;28026;48.562;14.440;2023-03-31T02:49:55;5.60;99.90
41592;DHT22;28026;48.562;14.440;2023-03-31T02:56:04;5.70;99.90
41592;DHT22;28026;48.562;14.440;2023-03-31T02:59:13;5.70;99.90
41592;DHT22;28026;48.562;14.440;2023-03-31T03:17:57;5.50;99.90
41592;DHT22;28026;48.562;14.440;2023-03-31T03:20:30;5.60;99.90
41592;DHT22;28026;48.562;14.440;2023-03-31T03:23:03;5.60;99.90
41592;DHT22;28026;48.562;14.440;2023-03-31T03:25:34;5.50;99.90
41592;DHT22;28026;48.562;14.440;2023-03-31T03:28:05;5.60;99.90
41592;DHT22;28026;48.562;14.440;2023-03-31T03:30:36;5.60;99.90
41592;DHT22;28026;48.562;14.440;2023-03-31T03:33:08;5.60;99.90
41592;DHT22;28026;48.562;14.440;2023-03-31T03:35:39;5.60;99.90
41592;DHT22;28026;48.562;14.440;2023-03-31T03:38:10;5.60;99.90
41592;DHT22;28026;48.562;14.440;2023-03-31T03:40:41;5.60;99.90
41592;DHT22;28026;48.562;14.440;2023-03-31T03:43:11;5.60;99.90
41592;DHT22;28026;48.562;14.440;2023-03-31T03:45:47;5.50;99.90
41592;DHT22;28026;48.562;14.440;2023-03-31T03:48:19;5.60;99.90
41592;DHT22;28026;48.562;14.440;2023-03-31T03:50:50;5.70;99.90
41592;DHT22;28026;48.562;14.440;2023-03-31T03:53:23;5.40;99.90
41592;DHT22;28026;48.562;14.440;2023-03-31T03:55:54;5.60;99.90
41592;DHT22;28026;48.562;14.440;2023-03-31T03:58:25;5.50;99.90
41592;DHT22;28026;48.562;14.440;2023-03-31T04:00:56;5.50;99.90
41592;DHT22;28026;48.562;14.440;2023-03-31T04:03:27;5.50;99.90
41592;DHT22;28026;48.562;14.440;2023-03-31T04:05:58;5.50;99.90
41592;DHT22;28026;48.562;14.440;2023-03-31T04:08:28;5.50;99.90
41592;DHT22;28026;48.562;14.440;2023-03-31T04:10:59;5.50;99.90
41592;DHT22;28026;48.562;14.440;2023-03-31T04:13:30;5.50;99.90
41592;DHT22;28026;48.562;14.440;2023-03-31T04:16:01;5.50;99.90
41592;DHT22;28026;48.562;14.440;2023-03-31T04:18:32;5.60;99.90
41592;DHT22;28026;48.562;14.440;2023-03-31T04:21:06;5.60;99.90
41592;DHT22;28026;48.562;14.440;2023-03-31T04:23:41;5.60;99.90
41592;DHT22;28026;48.562;14.440;2023-03-31T04:26:17;5.60;99.90
41592;DHT22;28026;48.562;14.440;2023-03-31T04:28:58;5.60;99.90
41592;DHT22;28026;48.562;14.440;2023-03-31T04:31:29;5.70;99.90
41592;DHT22;28026;48.562;14.440;2023-03-31T04:34:00;5.60;99.90
41592;DHT22;28026;48.562;14.440;2023-03-31T04:36:32;5.60;99.90
41592;DHT22;28026;48.562;14.440;2023-03-31T04:39:03;5.50;99.90
41592;DHT22;28026;48.562;14.440;2023-03-31T04:41:34;5.60;99.90
41592;DHT22;28026;48.562;14.440;2023-03-31T04:44:06;5.40;99.90
41592;DHT22;28026;48.562;14.440;2023-03-31T04:46:37;5.40;99.90
41592;DHT22;28026;48.562;14.440;2023-03-31T04:49:08;5.40;99.90
41592;DHT22;28026;48.562;14.440;2023-03-31T04:51:38;5.50;99.90
41592;DHT22;28026;48.562;14.440;2023-03-31T04:54:09;5.40;99.90
41592;DHT22;28026;48.562;14.440;2023-03-31T04:56:40;5.50;99.90
41592;DHT22;28026;48.562;14.440;2023-03-31T04:59:12;5.50;99.90
41592;DHT22;28026;48.562;14.440;2023-03-31T05:01:43;5.50;99.90
41592;DHT22;28026;48.562;14.440;2023-03-31T05:04:14;5.50;99.90
41592;DHT22;28026;48.562;14.440;2023-03-31T05:06:45;5.50;99.90
41592;DHT22;28026;48.562;14.440;2023-03-31T05:09:16;5.50;99.90
41592;DHT22;28026;48.562;14.440;2023-03-31T05:11:47;5.60;99.90
41592;DHT22;28026;48.562;14.440;2023-03-31T05:14:18;5.70;99.90
41592;DHT22;28026;48.562;14.440;2023-03-31T05:16:50;5.60;99.90
41592;DHT22;28026;48.562;14.440;2023-03-31T05:19:21;5.60;99.90
41592;DHT22;28026;48.562;14.440;2023-03-31T05:21:51;5.60;99.90
41592;DHT22;28026;48.562;14.440;2023-03-31T05:24:22;5.50;99.90
41592;DHT22;28026;48.562;14.440;2023-03-31T05:26:53;5.60;99.90
41592;DHT22;28026;48.562;14.440;2023-03-31T05:29:25;5.50;99.90
41592;DHT22;28026;48.562;14.440;2023-03-31T05:31:57;5.70;99.90
41592;DHT22;28026;48.562;14.440;2023-03-31T05:34:28;5.70;99.90
41592;DHT22;28026;48.562;14.440;2023-03-31T05:36:58;5.70;99.90
41592;DHT22;28026;48.562;14.440;2023-03-31T05:39:29;5.60;99.90
41592;DHT22;28026;48.562;14.440;2023-03-31T05:42:02;5.70;99.90
41592;DHT22;28026;48.562;14.440;2023-03-31T05:44:35;5.70;99.90
41592;DHT22;28026;48.562;14.440;2023-03-31T05:47:06;5.70;99.90
41592;DHT22;28026;48.562;14.440;2023-03-31T05:49:37;5.70;99.90
41592;DHT22;28026;48.562;14.440;2023-03-31T05:52:08;5.90;99.90
41592;DHT22;28026;48.562;14.440;2023-03-31T05:54:40;6.00;99.90
41592;DHT22;28026;48.562;14.440;2023-03-31T05:57:12;6.00;99.90
41592;DHT22;28026;48.562;14.440;2023-03-31T05:59:43;6.10;99.90
41592;DHT22;28026;48.562;14.440;2023-03-31T06:02:14;6.10;99.90
41592;DHT22;28026;48.562;14.440;2023-03-31T06:04:44;6.30;99.90
41592;DHT22;28026;48.562;14.440;2023-03-31T06:07:16;6.30;99.90
41592;DHT22;28026;48.562;14.440;2023-03-31T06:09:47;6.30;99.90
41592;DHT22;28026;48.562;14.440;2023-03-31T06:12:18;6.30;99.90
41592;DHT22;28026;48.562;14.440;2023-03-31T06:14:49;6.30;99.90
41592;DHT22;28026;48.562;14.440;2023-03-31T06:17:20;6.30;99.90
41592;DHT22;28026;48.562;14.440;2023-03-31T06:19:51;6.20;99.90
41592;DHT22;28026;48.562;14.440;2023-03-31T06:22:22;6.20;99.90
41592;DHT22;28026;48.562;14.440;2023-03-31T06:24:53;6.30;99.90
41592;DHT22;28026;48.562;14.440;2023-03-31T06:27:24;6.50;99.90
41592;DHT22;28026;48.562;14.440;2023-03-31T06:29:54;6.70;99.90
41592;DHT22;28026;48.562;14.440;2023-03-31T06:32:25;6.70;99.90
41592;DHT22;28026;48.562;14.440;2023-03-31T06:34:56;6.50;99.90
41592;DHT22;28026;48.562;14.440;2023-03-31T06:37:27;6.70;99.90
41592;DHT22;28026;48.562;14.440;2023-03-31T06:39:58;6.70;99.90
41592;DHT22;28026;48.562;14.440;2023-03-31T06:42:29;6.80;99.90
41592;DHT22;28026;48.562;14.440;2023-03-31T06:45:00;6.80;99.90
41592;DHT22;28026;48.562;14.440;2023-03-31T06:47:31;6.90;99.90
41592;DHT22;28026;48.562;14.440;2023-03-31T06:50:02;6.90;99.90
41592;DHT22;28026;48.562;14.440;2023-03-31T06:52:35;7.00;99.90
41592;DHT22;28026;48.562;14.440;2023-03-31T06:55:07;7.10;99.90
41592;DHT22;28026;48.562;14.440;2023-03-31T06:57:39;7.10;99.90
41592;DHT22;28026;48.562;14.440;2023-03-31T07:00:11;7.00;99.90
41592;DHT22;28026;48.562;14.440;2023-03-31T07:02:42;7.00;99.90
41592;DHT22;28026;48.562;14.440;2023-03-31T07:05:13;6.90;99.90
41592;DHT22;28026;48.562;14.440;2023-03-31T07:07:44;6.90;99.90
41592;DHT22;28026;48.562;14.440;2023-03-31T07:10:15;6.80;99.90
41592;DHT22;28026;48.562;14.440;2023-03-31T07:12:46;6.80;99.90
41592;DHT22;28026;48.562;14.440;2023-03-31T07:15:17;6.90;99.90
41592;DHT22;28026;48.562;14.440;2023-03-31T07:17:48;7.00;99.90
41592;DHT22;28026;48.562;14.440;2023-03-31T07:20:23;7.10;99.90
41592;DHT22;28026;48.562;14.440;2023-03-31T07:22:54;7.10;99.90
41592;DHT22;28026;48.562;14.440;2023-03-31T07:25:25;7.20;99.90
41592;DHT22;28026;48.562;14.440;2023-03-31T07:27:55;7.20;99.90
41592;DHT22;28026;48.562;14.440;2023-03-31T07:30:26;7.20;99.90
41592;DHT22;28026;48.562;14.440;2023-03-31T07:32:58;7.20;99.90
41592;DHT22;28026;48.562;14.440;2023-03-31T07:35:29;7.20;99.90
41592;DHT22;28026;48.562;14.440;2023-03-31T07:38:00;7.20;99.90
41592;DHT22;28026;48.562;14.440;2023-03-31T07:40:31;7.20;99.90
41592;DHT22;28026;48.562;14.440;2023-03-31T07:43:02;7.30;99.90
41592;DHT22;28026;48.562;14.440;2023-03-31T07:45:34;7.40;99.90
41592;DHT22;28026;48.562;14.440;2023-03-31T07:48:05;7.50;99.90
41592;DHT22;28026;48.562;14.440;2023-03-31T07:50:36;7.40;99.90
41592;DHT22;28026;48.562;14.440;2023-03-31T07:53:07;7.50;99.90
41592;DHT22;28026;48.562;14.440;2023-03-31T07:55:38;7.40;99.90
41592;DHT22;28026;48.562;14.440;2023-03-31T07:58:09;7.30;99.90
41592;DHT22;28026;48.562;14.440;2023-03-31T08:00:41;7.30;99.90
41592;DHT22;28026;48.562;14.440;2023-03-31T08:03:12;7.30;99.90
41592;DHT22;28026;48.562;14.440;2023-03-31T08:05:43;7.30;99.90
41592;DHT22;28026;48.562;14.440;2023-03-31T08:08:14;7.20;99.90
41592;DHT22;28026;48.562;14.440;2023-03-31T08:10:45;7.20;99.90
41592;DHT22;28026;48.562;14.440;2023-03-31T08:13:17;7.10;99.90
41592;DHT22;28026;48.562;14.440;2023-03-31T08:15:48;7.10;99.90
41592;DHT22;28026;48.562;14.440;2023-03-31T08:18:19;7.00;99.90
41592;DHT22;28026;48.562;14.440;2023-03-31T08:20:50;7.00;99.90
41592;DHT22;28026;48.562;14.440;2023-03-31T08:23:21;7.20;99.90
41592;DHT22;28026;48.562;14.440;2023-03-31T08:25:51;7.10;99.90
41592;DHT22;28026;48.562;14.440;2023-03-31T08:28:22;7.20;99.90
41592;DHT22;28026;48.562;14.440;2023-03-31T08:30:53;7.40;99.90
41592;DHT22;28026;48.562;14.440;2023-03-31T08:33:24;7.60;99.90
41592;DHT22;28026;48.562;14.440;2023-03-31T08:35:55;7.80;99.90
41592;DHT22;28026;48.562;14.440;2023-03-31T08:38:26;7.90;99.90
41592;DHT22;28026;48.562;14.440;2023-03-31T08:41:04;7.80;99.90
41592;DHT22;28026;48.562;14.440;2023-03-31T08:43:45;8.00;99.90
41592;DHT22;28026;48.562;14.440;2023-03-31T08:46:18;8.10;99.90
41592;DHT22;28026;48.562;14.440;2023-03-31T08:48:55;8.20;99.90
41592;DHT22;28026;48.562;14.440;2023-03-31T08:51:33;8.40;99.90
41592;DHT22;28026;48.562;14.440;2023-03-31T08:54:39;8.40;99.90
41592;DHT22;28026;48.562;14.440;2023-03-31T08:57:21;8.40;99.90
41592;DHT22;28026;48.562;14.440;2023-03-31T09:00:17;8.20;99.90
41592;DHT22;28026;48.562;14.440;2023-03-31T09:02:58;8.10;99.90
41592;DHT22;28026;48.562;14.440;2023-03-31T09:06:13;8.00;99.90
41592;DHT22;28026;48.562;14.440;2023-03-31T09:08:55;7.80;99.90
41592;DHT22;28026;48.562;14.440;2023-03-31T09:11:39;7.80;99.90
41592;DHT22;28026;48.562;14.440;2023-03-31T09:17:35;7.80;99.90
41592;DHT22;28026;48.562;14.440;2023-03-31T09:20:21;7.90;99.90
41592;DHT22;28026;48.562;14.440;2023-03-31T09:29:04;7.60;99.90
41592;DHT22;28026;48.562;14.440;2023-03-31T09:31:44;7.60;99.90
41592;DHT22;28026;48.562;14.440;2023-03-31T09:34:28;7.70;99.90
41592;DHT22;28026;48.562;14.440;2023-03-31T09:37:02;7.70;99.90
41592;DHT22;28026;48.562;14.440;2023-03-31T09:39:34;8.00;99.90
41592;DHT22;28026;48.562;14.440;2023-03-31T09:42:06;7.80;99.90
41592;DHT22;28026;48.562;14.440;2023-03-31T09:44:46;7.80;99.90
41592;DHT22;28026;48.562;14.440;2023-03-31T09:47:32;8.00;99.90
41592;DHT22;28026;48.562;14.440;2023-03-31T09:50:12;8.10;99.90
41592;DHT22;28026;48.562;14.440;2023-03-31T09:52:51;8.30;99.90
41592;DHT22;28026;48.562;14.440;2023-03-31T09:58:15;8.70;99.90
41592;DHT22;28026;48.562;14.440;2023-03-31T10:01:02;8.70;99.90
41592;DHT22;28026;48.562;14.440;2023-03-31T10:03:52;8.90;99.90
41592;DHT22;28026;48.562;14.440;2023-03-31T10:06:25;9.30;99.90
41592;DHT22;28026;48.562;14.440;2023-03-31T10:09:00;9.30;99.90
41592;DHT22;28026;48.562;14.440;2023-03-31T10:11:34;9.30;99.90
41592;DHT22;28026;48.562;14.440;2023-03-31T10:14:14;9.60;99.90
41592;DHT22;28026;48.562;14.440;2023-03-31T10:16:56;9.80;99.90
41592;DHT22;28026;48.562;14.440;2023-03-31T10:19:35;9.90;99.90
41592;DHT22;28026;48.562;14.440;2023-03-31T10:22:37;9.90;99.90
41592;DHT22;28026;48.562;14.440;2023-03-31T10:25:21;9.90;99.90
41592;DHT22;28026;48.562;14.440;2023-03-31T10:27:57;9.50;99.90
41592;DHT22;28026;48.562;14.440;2023-03-31T10:30:34;9.20;99.90
41592;DHT22;28026;48.562;14.440;2023-03-31T10:33:13;9.00;99.90
41592;DHT22;28026;48.562;14.440;2023-03-31T10:35:54;9.10;99.90
41592;DHT22;28026;48.562;14.440;2023-03-31T10:38:35;9.20;99.90
41592;DHT22;28026;48.562;14.440;2023-03-31T10:41:16;9.30;99.90
41592;DHT22;28026;48.562;14.440;2023-03-31T10:43:57;9.40;99.90
41592;DHT22;28026;48.562;14.440;2023-03-31T10:51:54;9.30;99.90
41592;DHT22;28026;48.562;14.440;2023-03-31T10:54:30;9.30;99.90
41592;DHT22;28026;48.562;14.440;2023-03-31T10:57:04;9.10;99.90
41592;DHT22;28026;48.562;14.440;2023-03-31T11:00:02;9.00;99.90
41592;DHT22;28026;48.562;14.440;2023-03-31T11:03:17;8.90;99.90
41592;DHT22;28026;48.562;14.440;2023-03-31T11:06:26;8.80;99.90
41592;DHT22;28026;48.562;14.440;2023-03-31T11:12:52;9.10;99.90
41592;DHT22;28026;48.562;14.440;2023-03-31T11:22:14;9.80;99.90
41592;DHT22;28026;48.562;14.440;2023-03-31T11:34:51;12.30;99.90
41592;DHT22;28026;48.562;14.440;2023-03-31T11:42:07;12.20;99.90
41592;DHT22;28026;48.562;14.440;2023-03-31T11:44:57;12.20;99.90
41592;DHT22;28026;48.562;14.440;2023-03-31T11:47:43;12.40;99.90
41592;DHT22;28026;48.562;14.440;2023-03-31T11:50:29;12.50;99.90
41592;DHT22;28026;48.562;14.440;2023-03-31T11:53:19;12.80;99.90
41592;DHT22;28026;48.562;14.440;2023-03-31T11:56:01;13.00;99.90
41592;DHT22;28026;48.562;14.440;2023-03-31T11:58:39;13.20;99.90
41592;DHT22;28026;48.562;14.440;2023-03-31T12:01:42;13.00;99.90
41592;DHT22;28026;48.562;14.440;2023-03-31T12:04:42;13.00;99.90
41592;DHT22;28026;48.562;14.440;2023-03-31T12:10:41;13.20;99.90
41592;DHT22;28026;48.562;14.440;2023-03-31T12:13:53;13.20;99.90
41592;DHT22;28026;48.562;14.440;2023-03-31T12:16:41;12.70;99.90
41592;DHT22;28026;48.562;14.440;2023-03-31T12:19:24;12.70;99.90
41592;DHT22;28026;48.562;14.440;2023-03-31T12:24:39;12.80;99.90
41592;DHT22;28026;48.562;14.440;2023-03-31T12:27:19;12.50;99.90
41592;DHT22;28026;48.562;14.440;2023-03-31T12:30:12;12.80;99.90
41592;DHT22;28026;48.562;14.440;2023-03-31T12:33:21;12.10;99.90
41592;DHT22;28026;48.562;14.440;2023-03-31T12:36:29;11.90;99.90
41592;DHT22;28026;48.562;14.440;2023-03-31T12:39:20;11.90;99.90
41592;DHT22;28026;48.562;14.440;2023-03-31T12:45:42;11.80;99.90
41592;DHT22;28026;48.562;14.440;2023-03-31T12:52:03;11.80;99.90
41592;DHT22;28026;48.562;14.440;2023-03-31T12:55:36;12.30;99.90
41592;DHT22;28026;48.562;14.440;2023-03-31T13:01:28;11.60;99.90
41592;DHT22;28026;48.562;14.440;2023-03-31T13:06:53;11.30;99.90
41592;DHT22;28026;48.562;14.440;2023-03-31T13:09:43;11.20;99.90
41592;DHT22;28026;48.562;14.440;2023-03-31T13:12:23;11.00;99.90
41592;DHT22;28026;48.562;14.440;2023-03-31T13:15:03;10.80;99.90
41592;DHT22;28026;48.562;14.440;2023-03-31T13:17:35;10.80;99.90
41592;DHT22;28026;48.562;14.440;2023-03-31T13:23:21;10.90;99.90
41592;DHT22;28026;48.562;14.440;2023-03-31T13:25:58;10.90;99.90
41592;DHT22;28026;48.562;14.440;2023-03-31T13:28:40;10.80;99.90
41592;DHT22;28026;48.562;14.440;2023-03-31T13:31:13;10.90;99.90
41592;DHT22;28026;48.562;14.440;2023-03-31T13:33:58;10.80;99.90
41592;DHT22;28026;48.562;14.440;2023-03-31T13:48:38;8.80;99.90
41592;DHT22;28026;48.562;14.440;2023-03-31T13:58:37;8.50;99.90
41592;DHT22;28026;48.562;14.440;2023-03-31T14:07:43;8.10;99.90
41592;DHT22;28026;48.562;14.440;2023-03-31T14:10:34;8.10;99.90
41592;DHT22;28026;48.562;14.440;2023-03-31T14:13:17;8.10;99.90
41592;DHT22;28026;48.562;14.440;2023-03-31T14:15:55;8.20;99.90
41592;DHT22;28026;48.562;14.440;2023-03-31T14:18:35;8.10;99.90
41592;DHT22;28026;48.562;14.440;2023-03-31T14:21:33;8.20;99.90
41592;DHT22;28026;48.562;14.440;2023-03-31T14:37:03;8.20;99.90
41592;DHT22;28026;48.562;14.440;2023-03-31T14:39:51;8.30;99.90
41592;DHT22;28026;48.562;14.440;2023-03-31T14:42:31;8.30;99.90
41592;DHT22;28026;48.562;14.440;2023-03-31T14:48:12;8.50;99.90
41592;DHT22;28026;48.562;14.440;2023-03-31T14:50:45;8.50;99.90
41592;DHT22;28026;48.562;14.440;2023-03-31T14:53:21;8.70;99.90
41592;DHT22;28026;48.562;14.440;2023-03-31T14:56:03;8.90;99.90
41592;DHT22;28026;48.562;14.440;2023-03-31T14:58:42;8.80;99.90
41592;DHT22;28026;48.562;14.440;2023-03-31T15:01:26;8.80;99.90
41592;DHT22;28026;48.562;14.440;2023-03-31T15:04:11;8.70;99.90
41592;DHT22;28026;48.562;14.440;2023-03-31T15:06:47;8.70;99.90
41592;DHT22;28026;48.562;14.440;2023-03-31T15:09:24;8.80;99.90
41592;DHT22;28026;48.562;14.440;2023-03-31T15:12:01;8.70;99.90
41592;DHT22;28026;48.562;14.440;2023-03-31T15:14:48;8.70;99.90
41592;DHT22;28026;48.562;14.440;2023-03-31T15:17:28;8.70;99.90
41592;DHT22;28026;48.562;14.440;2023-03-31T15:23:26;8.60;99.90
41592;DHT22;28026;48.562;14.440;2023-03-31T15:26:01;8.50;99.90
41592;DHT22;28026;48.562;14.440;2023-03-31T15:28:55;8.40;99.90
41592;DHT22;28026;48.562;14.440;2023-03-31T15:31:38;8.30;99.90
41592;DHT22;28026;48.562;14.440;2023-03-31T15:34:21;8.30;99.90
41592;DHT22;28026;48.562;14.440;2023-03-31T15:36:57;8.30;99.90
41592;DHT22;28026;48.562;14.440;2023-03-31T15:39:32;8.30;99.90
41592;DHT22;28026;48.562;14.440;2023-03-31T15:42:07;8.30;99.90
41592;DHT22;28026;48.562;14.440;2023-03-31T15:44:53;8.20;99.90
41592;DHT22;28026;48.562;14.440;2023-03-31T15:48:00;8.20;99.90
41592;DHT22;28026;48.562;14.440;2023-03-31T15:50:33;8.20;99.90
41592;DHT22;28026;48.562;14.440;2023-03-31T15:56:06;8.00;99.90
41592;DHT22;28026;48.562;14.440;2023-03-31T15:58:54;8.00;99.90
41592;DHT22;28026;48.562;14.440;2023-03-31T16:01:43;8.00;99.90
41592;DHT22;28026;48.562;14.440;2023-03-31T16:04:16;8.00;99.90
41592;DHT22;28026;48.562;14.440;2023-03-31T16:12:58;7.80;99.90
41592;DHT22;28026;48.562;14.440;2023-03-31T16:15:41;7.70;99.90
41592;DHT22;28026;48.562;14.440;2023-03-31T16:18:31;7.80;99.90
41592;DHT22;28026;48.562;14.440;2023-03-31T16:21:09;7.70;99.90
41592;DHT22;28026;48.562;14.440;2023-03-31T16:23:43;7.70;99.90
41592;DHT22;28026;48.562;14.440;2023-03-31T16:26:24;7.60;99.90
41592;DHT22;28026;48.562;14.440;2023-03-31T16:28:58;7.60;99.90
41592;DHT22;28026;48.562;14.440;2023-03-31T16:31:38;7.50;99.90
41592;DHT22;28026;48.562;14.440;2023-03-31T16:34:10;7.60;99.90
41592;DHT22;28026;48.562;14.440;2023-03-31T16:36:41;7.50;99.90
41592;DHT22;28026;48.562;14.440;2023-03-31T16:39:12;7.20;99.90
41592;DHT22;28026;48.562;14.440;2023-03-31T16:41:43;7.20;99.90
41592;DHT22;28026;48.562;14.440;2023-03-31T16:44:14;7.20;99.90
41592;DHT22;28026;48.562;14.440;2023-03-31T16:46:45;7.10;99.90
41592;DHT22;28026;48.562;14.440;2023-03-31T16:49:16;7.30;99.90
41592;DHT22;28026;48.562;14.440;2023-03-31T16:51:47;7.40;99.90
41592;DHT22;28026;48.562;14.440;2023-03-31T16:54:18;7.40;99.90
41592;DHT22;28026;48.562;14.440;2023-03-31T16:56:48;7.50;99.90
41592;DHT22;28026;48.562;14.440;2023-03-31T16:59:19;7.40;99.90
41592;DHT22;28026;48.562;14.440;2023-03-31T17:01:51;7.50;99.90
41592;DHT22;28026;48.562;14.440;2023-03-31T17:04:22;7.50;99.90
41592;DHT22;28026;48.562;14.440;2023-03-31T17:06:53;7.60;99.90
41592;DHT22;28026;48.562;14.440;2023-03-31T17:09:24;7.60;99.90
41592;DHT22;28026;48.562;14.440;2023-03-31T17:11:55;7.60;99.90
41592;DHT22;28026;48.562;14.440;2023-03-31T17:14:25;7.70;99.90
41592;DHT22;28026;48.562;14.440;2023-03-31T17:16:56;7.60;99.90
41592;DHT22;28026;48.562;14.440;2023-03-31T17:19:28;7.60;99.90
41592;DHT22;28026;48.562;14.440;2023-03-31T17:21:58;7.40;99.90
41592;DHT22;28026;48.562;14.440;2023-03-31T17:24:32;7.50;99.90
41592;DHT22;28026;48.562;14.440;2023-03-31T17:27:03;7.40;99.90
41592;DHT22;28026;48.562;14.440;2023-03-31T17:29:34;7.40;99.90
41592;DHT22;28026;48.562;14.440;2023-03-31T17:32:05;7.50;99.90
41592;DHT22;28026;48.562;14.440;2023-03-31T17:34:37;7.50;99.90
41592;DHT22;28026;48.562;14.440;2023-03-31T17:37:08;7.50;99.90
41592;DHT22;28026;48.562;14.440;2023-03-31T17:39:39;7.40;99.90
41592;DHT22;28026;48.562;14.440;2023-03-31T17:42:11;7.30;99.90
41592;DHT22;28026;48.562;14.440;2023-03-31T17:44:43;7.20;99.90
41592;DHT22;28026;48.562;14.440;2023-03-31T17:47:16;7.20;99.90
41592;DHT22;28026;48.562;14.440;2023-03-31T17:49:49;7.20;99.90
41592;DHT22;28026;48.562;14.440;2023-03-31T17:52:20;7.20;99.90
41592;DHT22;28026;48.562;14.440;2023-03-31T17:54:52;7.30;99.90
41592;DHT22;28026;48.562;14.440;2023-03-31T17:57:22;7.40;99.90
41592;DHT22;28026;48.562;14.440;2023-03-31T17:59:53;7.30;99.90
41592;DHT22;28026;48.562;14.440;2023-03-31T18:02:25;7.00;99.90
41592;DHT22;28026;48.562;14.440;2023-03-31T18:04:56;7.00;99.90
41592;DHT22;28026;48.562;14.440;2023-03-31T18:07:27;7.10;99.90
41592;DHT22;28026;48.562;14.440;2023-03-31T18:09:58;6.90;99.90
41592;DHT22;28026;48.562;14.440;2023-03-31T18:12:31;6.80;99.90
41592;DHT22;28026;48.562;14.440;2023-03-31T18:15:04;6.70;99.90
41592;DHT22;28026;48.562;14.440;2023-03-31T18:17:36;6.50;99.90
41592;DHT22;28026;48.562;14.440;2023-03-31T18:20:07;6.40;99.90
41592;DHT22;28026;48.562;14.440;2023-03-31T18:22:39;6.20;99.90
41592;DHT22;28026;48.562;14.440;2023-03-31T18:25:11;6.40;99.90
41592;DHT22;28026;48.562;14.440;2023-03-31T18:27:42;6.70;99.90
41592;DHT22;28026;48.562;14.440;2023-03-31T18:30:13;6.80;99.90
41592;DHT22;28026;48.562;14.440;2023-03-31T18:32:44;6.80;99.90
41592;DHT22;28026;48.562;14.440;2023-03-31T18:35:15;6.80;99.90
41592;DHT22;28026;48.562;14.440;2023-03-31T18:37:46;6.70;99.90
41592;DHT22;28026;48.562;14.440;2023-03-31T18:40:17;6.60;99.90
41592;DHT22;28026;48.562;14.440;2023-03-31T18:42:49;6.70;99.90
41592;DHT22;28026;48.562;14.440;2023-03-31T18:45:21;6.70;99.90
41592;DHT22;28026;48.562;14.440;2023-03-31T18:47:52;6.70;99.90
41592;DHT22;28026;48.562;14.440;2023-03-31T18:50:24;6.60;99.90
41592;DHT22;28026;48.562;14.440;2023-03-31T18:52:55;6.60;99.90
41592;DHT22;28026;48.562;14.440;2023-03-31T18:55:26;6.70;99.90
41592;DHT22;28026;48.562;14.440;2023-03-31T18:57:58;6.70;99.90
41592;DHT22;28026;48.562;14.440;2023-03-31T19:00:29;6.70;99.90
41592;DHT22;28026;48.562;14.440;2023-03-31T19:03:00;6.70;99.90
41592;DHT22;28026;48.562;14.440;2023-03-31T19:05:31;6.80;99.90
41592;DHT22;28026;48.562;14.440;2023-03-31T19:08:02;6.80;99.90
41592;DHT22;28026;48.562;14.440;2023-03-31T19:10:33;6.90;99.90
41592;DHT22;28026;48.562;14.440;2023-03-31T19:13:04;7.00;99.90
41592;DHT22;28026;48.562;14.440;2023-03-31T19:15:37;7.00;99.90